Time;durP1;ratioP1;P1;durP2;ratioP2;P2;SDS_P1;SDS_P2;PMS_P1;PMS_P2;Temp;Humidity;BMP_temperature;BMP_pressure;BME280_temperature;BME280_humidity;BME280_pressure;Samples;Min_cycle;Max_cycle;Signal;HPM_P1;HPM_P2
2023/02/12 00:00:29;;;;;;;1999.90;999.90;;;;;;;-0.65;100.00;99371.00;5010161;28;20458;-75
2023/02/12 00:02:55;;;;;;;1999.90;999.90;;;;;;;-0.75;100.00;99367.81;5009882;28;20029;-74
2023/02/12 00:05:20;;;;;;;1999.90;999.90;;;;;;;-0.83;100.00;99351.78;5009094;28;20519;-76
2023/02/12 00:07:45;;;;;;;1999.90;999.90;;;;;;;-0.89;100.00;99357.91;5009534;28;20083;-78
2023/02/12 00:10:12;;;;;;;1999.90;999.90;;;;;;;-0.84;100.00;99360.84;5010711;28;20026;-77
2023/02/12 00:12:37;;;;;;;1999.90;999.90;;;;;;;-0.95;100.00;99334.50;4992499;28;20041;-78
2023/02/12 00:15:03;;;;;;;1999.90;999.90;;;;;;;-0.74;100.00;99372.97;5010231;28;20026;-76
2023/02/12 00:17:28;;;;;;;1999.90;999.90;;;;;;;-0.72;100.00;99380.88;5010059;28;20036;-76
2023/02/12 00:19:54;;;;;;;1999.90;999.90;;;;;;;-0.76;100.00;99369.66;5009363;28;20029;-76
2023/02/12 00:22:19;;;;;;;1999.90;999.90;;;;;;;-0.71;100.00;99366.38;5005627;28;20415;-77
2023/02/12 00:24:44;;;;;;;1999.90;999.90;;;;;;;-0.66;100.00;99361.31;5009713;28;20022;-76
2023/02/12 00:27:10;;;;;;;1999.90;999.90;;;;;;;-0.60;100.00;99371.28;4991984;28;20034;-75
2023/02/12 00:29:36;;;;;;;1999.90;999.90;;;;;;;-0.72;100.00;99370.13;5010427;28;20093;-77
2023/02/12 00:32:02;;;;;;;1999.90;999.90;;;;;;;-0.75;100.00;99370.50;5009940;28;20028;-76
2023/02/12 00:34:27;;;;;;;1999.90;999.90;;;;;;;-0.70;100.00;99373.44;5008777;28;20116;-75
2023/02/12 00:36:53;;;;;;;1999.90;999.90;;;;;;;-0.65;100.00;99387.97;5010557;28;20534;-75
2023/02/12 00:39:18;;;;;;;1999.90;999.90;;;;;;;-0.86;100.00;99347.63;5009656;28;20038;-77
2023/02/12 00:41:43;;;;;;;1999.90;999.90;;;;;;;-0.68;100.00;99382.13;5010310;28;20555;-76
2023/02/12 00:44:09;;;;;;;1999.90;999.90;;;;;;;-0.61;100.00;99380.38;5010161;28;20013;-76
2023/02/12 00:46:34;;;;;;;1999.90;999.90;;;;;;;-0.56;100.00;99391.38;5010480;28;20026;-76
2023/02/12 00:49:00;;;;;;;1999.90;999.90;;;;;;;-0.44;100.00;99389.88;5010173;28;20046;-74
2023/02/12 00:51:25;;;;;;;1999.90;999.90;;;;;;;-0.48;100.00;99390.44;5010864;28;20032;-77
2023/02/12 00:53:50;;;;;;;1999.90;999.90;;;;;;;-0.52;100.00;99392.66;5010686;28;20112;-75
2023/02/12 00:56:16;;;;;;;1999.90;999.90;;;;;;;-0.49;100.00;99386.91;5010279;28;20029;-75
2023/02/12 00:58:41;;;;;;;1999.90;999.90;;;;;;;-0.43;100.00;99379.94;5010823;28;20030;-76
2023/02/12 01:01:06;;;;;;;1999.90;999.90;;;;;;;-0.54;100.00;99367.84;5010843;28;20081;-75
2023/02/12 01:03:32;;;;;;;1999.90;999.90;;;;;;;-0.52;100.00;99381.91;5012116;28;20034;-75
2023/02/12 01:05:57;;;;;;;1999.90;999.90;;;;;;;-0.56;100.00;99369.88;5013350;28;20026;-77
2023/02/12 01:08:23;;;;;;;1999.90;999.90;;;;;;;-0.53;100.00;99366.81;5015661;28;20145;-79
2023/02/12 01:11:00;;;;;;;1999.90;999.90;;;;;;;-0.55;100.00;99390.34;5011452;28;20029;-76
2023/02/12 01:13:27;;;;;;;1999.90;999.90;;;;;;;-0.61;100.00;99399.16;5010810;28;20022;-75
2023/02/12 01:16:05;;;;;;;1999.90;999.90;;;;;;;-0.73;100.00;99393.44;5010784;28;20018;-75
2023/02/12 01:18:30;;;;;;;1999.90;999.90;;;;;;;-0.86;100.00;99395.97;5010592;28;20065;-76
2023/02/12 01:20:57;;;;;;;1999.90;999.90;;;;;;;-0.84;100.00;99385.03;5010489;28;20164;-76
2023/02/12 01:23:23;;;;;;;1999.90;999.90;;;;;;;-0.87;100.00;99386.22;5009875;28;20026;-75
2023/02/12 01:25:48;;;;;;;1999.90;999.90;;;;;;;-0.90;100.00;99375.88;5010178;28;20030;-75
2023/02/12 01:28:14;;;;;;;1999.90;999.90;;;;;;;-1.03;100.00;99374.88;5010530;28;21499;-77
2023/02/12 01:30:39;;;;;;;1999.90;999.90;;;;;;;-0.99;100.00;99384.22;4993737;28;20026;-77
2023/02/12 01:33:05;;;;;;;1999.90;999.90;;;;;;;-1.10;100.00;99356.81;5010690;28;20113;-75
2023/02/12 01:35:30;;;;;;;1999.90;999.90;;;;;;;-1.24;100.00;99352.28;4993012;28;20084;-76
2023/02/12 01:37:55;;;;;;;1999.90;999.90;;;;;;;-1.17;100.00;99361.28;4992615;28;20140;-75
2023/02/12 01:40:21;;;;;;;1999.90;999.90;;;;;;;-1.12;100.00;99368.75;5010259;28;20025;-77
2023/02/12 01:42:46;;;;;;;1999.90;999.90;;;;;;;-1.19;100.00;99351.75;5010341;28;20097;-76
2023/02/12 01:45:12;;;;;;;1999.90;999.90;;;;;;;-1.10;100.00;99378.28;4992809;28;20081;-76
2023/02/12 01:47:38;;;;;;;1999.90;999.90;;;;;;;-0.93;100.00;99370.03;5010523;28;20093;-75
2023/02/12 01:50:06;;;;;;;1999.90;999.90;;;;;;;-1.04;100.00;99368.69;5010453;28;20034;-75
2023/02/12 01:52:35;;;;;;;1999.90;999.90;;;;;;;-1.04;100.00;99382.09;5007033;28;20398;-74
2023/02/12 01:55:06;;;;;;;1999.90;999.90;;;;;;;-1.15;100.00;99372.66;5010424;28;20022;-74
2023/02/12 01:57:36;;;;;;;1999.90;999.90;;;;;;;-1.07;100.00;99385.97;5016879;28;20034;-75
2023/02/12 02:00:06;;;;;;;1999.90;999.90;;;;;;;-1.05;100.00;99376.91;5033056;28;20108;-74
2023/02/12 02:02:33;;;;;;;1999.90;999.90;;;;;;;-1.11;100.00;99376.63;5010326;28;20025;-76
2023/02/12 02:05:02;;;;;;;1999.90;999.90;;;;;;;-1.21;100.00;99365.34;4995623;28;20026;-76
2023/02/12 02:07:28;;;;;;;1999.90;999.90;;;;;;;-1.17;100.00;99365.81;5013633;28;20038;-75
2023/02/12 02:09:55;;;;;;;1999.90;999.90;;;;;;;-1.08;100.00;99376.25;5013497;28;20026;-76
2023/02/12 02:15:06;;;;;;;1999.90;999.90;;;;;;;-1.21;100.00;99368.03;5013680;28;20076;-76
2023/02/12 02:17:33;;;;;;;1999.90;999.90;;;;;;;-1.17;100.00;99366.66;5013582;28;20038;-75
2023/02/12 02:20:00;;;;;;;1999.90;999.90;;;;;;;-1.30;100.00;99361.09;5013377;28;20029;-76
2023/02/12 02:23:04;;;;;;;1999.90;999.90;;;;;;;-1.29;100.00;99368.13;5013603;28;20029;-75
2023/02/12 02:25:54;;;;;;;1999.90;999.90;;;;;;;-1.25;100.00;99374.78;4995335;28;20038;-74
2023/02/12 02:28:37;;;;;;;1999.90;999.90;;;;;;;-1.27;100.00;99370.63;5013190;28;20087;-75
2023/02/12 02:31:17;;;;;;;1999.90;999.90;;;;;;;-1.44;100.00;99359.22;5013970;28;20033;-75
2023/02/12 02:33:45;;;;;;;1999.90;999.90;;;;;;;-1.45;100.00;99360.25;4999980;28;20030;-75
2023/02/12 02:36:42;;;;;;;1999.90;999.90;;;;;;;-1.50;100.00;99353.78;5013572;28;20029;-76
2023/02/12 02:39:18;;;;;;;1999.90;999.90;;;;;;;-1.60;100.00;99353.22;4980040;28;20065;-75
2023/02/12 02:41:56;;;;;;;1999.90;999.90;;;;;;;-1.55;100.00;99362.38;5013604;28;20479;-75
2023/02/12 02:44:31;;;;;;;1999.90;999.90;;;;;;;-1.59;100.00;99361.06;5013190;28;20085;-76
2023/02/12 02:46:58;;;;;;;1999.90;999.90;;;;;;;-1.72;100.00;99342.06;5013191;28;20030;-75
2023/02/12 02:49:29;;;;;;;1999.90;999.90;;;;;;;-1.60;100.00;99358.56;5013139;28;20096;-75
2023/02/12 02:52:02;;;;;;;1999.90;999.90;;;;;;;-1.65;100.00;99361.78;5013234;28;20030;-75
2023/02/12 02:54:34;;;;;;;1999.90;999.90;;;;;;;-1.64;100.00;99363.47;5013128;28;20026;-76
2023/02/12 02:57:19;;;;;;;1999.90;999.90;;;;;;;-1.77;100.00;99361.41;5014451;28;20482;-75
2023/02/12 02:59:53;;;;;;;1999.90;999.90;;;;;;;-1.77;100.00;99366.78;5013165;28;20064;-74
2023/02/12 03:02:25;;;;;;;1999.90;999.90;;;;;;;-1.75;100.00;99363.91;5013302;28;20383;-75
2023/02/12 03:05:14;;;;;;;1999.90;999.90;;;;;;;-1.89;100.00;99380.78;5012886;28;20088;-75
2023/02/12 03:07:51;;;;;;;1999.90;999.90;;;;;;;-2.05;100.00;99357.63;5012581;28;20444;-77
2023/02/12 03:10:24;;;;;;;1999.90;999.90;;;;;;;-1.86;100.00;99354.47;5012813;28;20317;-77
2023/02/12 03:13:13;;;;;;;1999.90;999.90;;;;;;;-1.94;100.00;99356.38;5012717;28;20116;-76
2023/02/12 03:15:54;;;;;;;1999.90;999.90;;;;;;;-2.05;100.00;99375.56;5013501;28;20798;-77
2023/02/12 03:18:34;;;;;;;1999.90;999.90;;;;;;;-1.93;100.00;99384.84;5016497;28;20482;-76
2023/02/12 03:21:07;;;;;;;1999.90;999.90;;;;;;;-1.93;100.00;99387.53;5012826;28;20026;-76
2023/02/12 03:23:41;;;;;;;1999.90;999.90;;;;;;;-1.92;100.00;99391.88;5012595;28;20044;-76
2023/02/12 03:26:06;;;;;;;1999.90;999.90;;;;;;;-1.98;100.00;99387.25;5012427;28;20034;-76
2023/02/12 03:28:37;;;;;;;1999.90;999.90;;;;;;;-1.90;100.00;99395.19;5012433;28;20033;-75
2023/02/12 03:31:34;;;;;;;1999.90;999.90;;;;;;;-2.03;100.00;99394.97;5012913;28;20049;-75
2023/02/12 03:34:23;;;;;;;1999.90;999.90;;;;;;;-2.02;100.00;99389.44;5012292;28;20026;-75
2023/02/12 03:37:16;;;;;;;1999.90;999.90;;;;;;;-1.97;100.00;99405.00;5012105;28;20036;-75
2023/02/12 03:39:47;;;;;;;1999.90;999.90;;;;;;;-1.97;100.00;99400.44;5004467;28;20477;-76
2023/02/12 03:42:26;;;;;;;1999.90;999.90;;;;;;;-1.96;100.00;99412.00;5012209;28;20032;-75
2023/02/12 03:44:54;;;;;;;1999.90;999.90;;;;;;;-1.92;100.00;99429.41;5012139;28;20029;-76
2023/02/12 03:47:41;;;;;;;1999.90;999.90;;;;;;;-2.09;100.00;99409.94;5012251;28;20522;-78
2023/02/12 03:50:09;;;;;;;1999.90;999.90;;;;;;;-1.76;100.00;99434.66;5012952;28;20474;-79
2023/02/12 03:52:35;;;;;;;1999.90;999.90;;;;;;;-2.01;100.00;99420.59;5014115;28;20026;-78
2023/02/12 03:55:02;;;;;;;1999.90;999.90;;;;;;;-1.90;100.00;99422.84;5013425;28;20137;-77
2023/02/12 03:57:34;;;;;;;1999.90;999.90;;;;;;;-1.90;100.00;99438.09;5012543;28;20058;-74
2023/02/12 04:00:05;;;;;;;1999.90;999.90;;;;;;;-1.82;100.00;99446.09;5016947;28;20037;-78
2023/02/12 04:02:30;;;;;;;1999.90;999.90;;;;;;;-2.01;100.00;99417.09;5012182;28;20069;-75
2023/02/12 04:04:55;;;;;;;1999.90;999.90;;;;;;;-1.83;100.00;99439.06;5011748;28;20026;-74
2023/02/12 04:07:21;;;;;;;1999.90;999.90;;;;;;;-2.02;100.00;99420.75;5011857;28;20033;-75
2023/02/12 04:09:46;;;;;;;1999.90;999.90;;;;;;;-2.07;100.00;99409.75;5011764;28;20422;-76
2023/02/12 04:12:38;;;;;;;1999.90;999.90;;;;;;;-1.98;100.00;99443.53;5011808;28;20457;-74
2023/02/12 04:15:03;;;;;;;1999.90;999.90;;;;;;;-1.88;100.00;99465.56;5011642;28;20642;-78
2023/02/12 04:17:47;;;;;;;1999.90;999.90;;;;;;;-1.86;100.00;99460.84;5010849;28;20022;-76
2023/02/12 04:20:21;;;;;;;1999.90;999.90;;;;;;;-1.81;100.00;99475.38;5011493;28;20085;-75
2023/02/12 04:23:12;;;;;;;1999.90;999.90;;;;;;;-1.85;100.00;99457.19;5011441;28;20013;-75
2023/02/12 04:26:09;;;;;;;1999.90;999.90;;;;;;;-1.80;100.00;99476.22;5011430;28;20299;-75
2023/02/12 04:28:45;;;;;;;1999.90;999.90;;;;;;;-1.74;100.00;99462.09;5003097;28;20034;-75
2023/02/12 04:31:25;;;;;;;1999.90;999.90;;;;;;;-1.76;100.00;99474.88;4990648;28;20128;-75
2023/02/12 04:34:09;;;;;;;1999.90;999.90;;;;;;;-1.82;100.00;99483.63;4994120;28;20041;-75
2023/02/12 04:36:41;;;;;;;1999.90;999.90;;;;;;;-1.83;100.00;99480.09;5010795;28;20079;-76
2023/02/12 04:39:17;;;;;;;1999.90;999.90;;;;;;;-1.78;100.00;99477.72;5010677;28;20050;-76
2023/02/12 04:41:43;;;;;;;1999.90;999.90;;;;;;;-1.82;100.00;99472.91;4993392;28;20034;-77
2023/02/12 04:44:24;;;;;;;1999.90;999.90;;;;;;;-1.98;100.00;99451.56;5010797;28;20060;-76
2023/02/12 04:46:49;;;;;;;1999.90;999.90;;;;;;;-1.86;100.00;99467.06;5002524;28;20030;-74
2023/02/12 04:49:17;;;;;;;1999.90;999.90;;;;;;;-1.80;100.00;99465.50;4997507;28;20054;-76
2023/02/12 04:51:44;;;;;;;1999.90;999.90;;;;;;;-1.77;100.00;99475.88;5009910;28;20030;-76
2023/02/12 04:54:09;;;;;;;1999.90;999.90;;;;;;;-1.90;100.00;99464.91;5010727;28;20014;-75
2023/02/12 04:56:35;;;;;;;1999.90;999.90;;;;;;;-1.89;100.00;99469.25;5009697;28;20049;-75
2023/02/12 04:59:00;;;;;;;1999.90;999.90;;;;;;;-1.77;100.00;99491.94;5010665;28;20040;-75
2023/02/12 05:01:25;;;;;;;1999.90;999.90;;;;;;;-1.93;100.00;99475.97;4993376;28;20025;-75
2023/02/12 05:03:51;;;;;;;1999.90;999.90;;;;;;;-1.87;100.00;99502.06;5010886;28;20079;-74
2023/02/12 05:06:17;;;;;;;1999.90;999.90;;;;;;;-1.85;100.00;99484.78;5010985;28;20100;-77
2023/02/12 05:08:42;;;;;;;1999.90;999.90;;;;;;;-1.87;100.00;99472.59;5010695;28;20032;-79
2023/02/12 05:11:09;;;;;;;1999.90;999.90;;;;;;;-1.75;100.00;99492.59;5010596;28;20113;-76
2023/02/12 05:13:34;;;;;;;1999.90;999.90;;;;;;;-1.78;100.00;99501.00;5010503;28;20614;-77
2023/02/12 05:16:06;;;;;;;1999.90;999.90;;;;;;;-1.65;100.00;99511.97;5010555;28;20113;-76
2023/02/12 05:18:34;;;;;;;1999.90;999.90;;;;;;;-1.68;100.00;99523.91;4992649;28;20474;-75
2023/02/12 05:21:01;;;;;;;1999.90;999.90;;;;;;;-1.79;100.00;99512.75;5010337;28;20375;-74
2023/02/12 05:23:33;;;;;;;1999.90;999.90;;;;;;;-1.80;100.00;99505.72;5011007;28;20022;-78
2023/02/12 05:26:00;;;;;;;1999.90;999.90;;;;;;;-1.77;100.00;99522.28;5015918;28;20037;-78
2023/02/12 05:28:27;;;;;;;1999.90;999.90;;;;;;;-1.68;100.00;99513.16;4996711;28;20026;-75
2023/02/12 05:30:52;;;;;;;1999.90;999.90;;;;;;;-1.46;100.00;99521.38;5015651;28;20030;-75
2023/02/12 05:33:18;;;;;;;1999.90;999.90;;;;;;;-1.58;100.00;99518.28;5014273;28;20033;-76
2023/02/12 05:35:43;;;;;;;1999.90;999.90;;;;;;;-1.61;100.00;99502.56;5014035;28;20030;-75
2023/02/12 05:38:09;;;;;;;1999.90;999.90;;;;;;;-1.63;100.00;99510.78;5013832;28;20058;-75
2023/02/12 05:40:34;;;;;;;1999.90;999.90;;;;;;;-1.61;100.00;99529.38;4996433;28;20439;-75
2023/02/12 05:43:00;;;;;;;1999.90;999.90;;;;;;;-1.69;100.00;99518.69;5016115;28;20080;-74
2023/02/12 05:45:26;;;;;;;1999.90;999.90;;;;;;;-1.62;100.00;99536.59;4996488;28;20113;-75
2023/02/12 05:47:55;;;;;;;1999.90;999.90;;;;;;;-1.77;100.00;99533.00;5013671;28;20030;-75
2023/02/12 05:50:21;;;;;;;1999.90;999.90;;;;;;;-1.74;100.00;99529.13;5013878;28;20061;-75
2023/02/12 05:52:47;;;;;;;1999.90;999.90;;;;;;;-1.68;100.00;99549.88;5013738;28;20050;-77
2023/02/12 05:55:12;;;;;;;1999.90;999.90;;;;;;;-1.71;100.00;99555.59;5013721;28;20490;-76
2023/02/12 05:57:37;;;;;;;1999.90;999.90;;;;;;;-1.69;100.00;99565.13;5013708;28;20372;-75
2023/02/12 06:00:05;;;;;;;1999.90;999.90;;;;;;;-1.68;100.00;99561.44;5013808;28;20029;-78
2023/02/12 06:02:32;;;;;;;1999.90;999.90;;;;;;;-1.60;100.00;99557.03;5013872;28;20113;-76
2023/02/12 06:04:58;;;;;;;1999.90;999.90;;;;;;;-1.66;100.00;99556.72;5013825;28;20022;-77
2023/02/12 06:07:23;;;;;;;1999.90;999.90;;;;;;;-1.54;100.00;99559.84;5013658;28;20025;-77
2023/02/12 06:09:49;;;;;;;1999.90;999.90;;;;;;;-1.51;100.00;99572.06;5013337;28;20040;-74
2023/02/12 06:12:15;;;;;;;1999.90;999.90;;;;;;;-1.63;100.00;99575.13;5013542;28;20418;-75
2023/02/12 06:14:40;;;;;;;1999.90;999.90;;;;;;;-1.65;100.00;99603.16;5013504;28;20080;-77
2023/02/12 06:17:06;;;;;;;1999.90;999.90;;;;;;;-1.68;100.00;99608.88;5013323;28;20037;-74
2023/02/12 06:19:32;;;;;;;1999.90;999.90;;;;;;;-1.61;100.00;99612.53;4995655;28;20021;-74
2023/02/12 06:21:57;;;;;;;1999.90;999.90;;;;;;;-1.64;100.00;99599.47;5017615;28;20025;-75
2023/02/12 06:24:22;;;;;;;1999.90;999.90;;;;;;;-1.67;100.00;99605.19;5012943;28;20026;-76
2023/02/12 06:26:49;;;;;;;1999.90;999.90;;;;;;;-1.57;100.00;99629.09;4995622;28;20061;-75
2023/02/12 06:29:19;;;;;;;1999.90;999.90;;;;;;;-1.45;100.00;99612.44;4995419;28;20418;-76
2023/02/12 06:31:44;;;;;;;1999.90;999.90;;;;;;;-1.44;100.00;99610.59;5013409;28;20054;-75
2023/02/12 06:34:12;;;;;;;1999.90;999.90;;;;;;;-1.37;100.00;99641.03;4995958;28;20133;-75
2023/02/12 06:36:39;;;;;;;1999.90;999.90;;;;;;;-1.42;100.00;99622.81;4995918;28;20540;-77
2023/02/12 06:39:05;;;;;;;1999.90;999.90;;;;;;;-1.51;100.00;99631.91;5013957;28;20041;-78
2023/02/12 06:41:31;;;;;;;1999.90;999.90;;;;;;;-1.28;100.00;99646.19;5012424;28;20025;-76
2023/02/12 06:43:56;;;;;;;1999.90;999.90;;;;;;;-1.22;100.00;99642.78;5013592;28;20028;-77
2023/02/12 06:46:22;;;;;;;1999.90;999.90;;;;;;;-1.13;100.00;99655.13;5012550;28;20054;-76
2023/02/12 06:48:47;;;;;;;1999.90;999.90;;;;;;;-1.11;100.00;99645.06;5012891;28;20041;-77
2023/02/12 06:51:20;;;;;;;1999.90;999.90;;;;;;;-1.06;100.00;99668.66;5014223;28;20030;-76
2023/02/12 06:53:46;;;;;;;1999.90;999.90;;;;;;;-1.15;100.00;99651.78;4997641;28;20105;-76
2023/02/12 06:56:13;;;;;;;1999.90;999.90;;;;;;;-1.02;100.00;99671.84;4995383;28;20124;-75
2023/02/12 06:58:40;;;;;;;1999.90;999.90;;;;;;;-0.82;100.00;99673.03;5014009;28;20026;-77
2023/02/12 07:01:12;;;;;;;1999.90;999.90;;;;;;;-0.90;100.00;99670.41;4994014;28;20471;-79
2023/02/12 07:03:38;;;;;;;1999.90;999.90;;;;;;;-0.87;100.00;99673.56;5013215;28;20026;-75
2023/02/12 07:06:04;;;;;;;1999.90;999.90;;;;;;;-0.86;100.00;99658.28;4995373;28;20060;-78
2023/02/12 07:08:29;;;;;;;1999.90;999.90;;;;;;;-0.87;100.00;99673.56;5012212;28;20070;-79
2023/02/12 07:10:55;;;;;;;1999.90;999.90;;;;;;;-0.75;100.00;99682.06;5012671;28;20057;-79
2023/02/12 07:13:20;;;;;;;1999.90;999.90;;;;;;;-0.66;100.00;99680.97;5011934;28;20088;-77
2023/02/12 07:15:45;;;;;;;1999.90;999.90;;;;;;;-0.66;100.00;99672.91;5011964;28;20042;-78
2023/02/12 07:18:11;;;;;;;1999.90;999.90;;;;;;;-0.53;100.00;99691.91;5012320;28;21080;-78
2023/02/12 07:20:36;;;;;;;1999.90;999.90;;;;;;;-0.42;100.00;99687.97;5012310;28;20073;-79
2023/02/12 07:23:02;;;;;;;1999.90;999.90;;;;;;;-0.33;100.00;99690.38;5012092;28;20049;-81
2023/02/12 07:25:27;;;;;;;1999.90;999.90;;;;;;;-0.32;100.00;99692.06;5012616;28;20038;-76
2023/02/12 07:27:52;;;;;;;1999.90;999.90;;;;;;;-0.34;100.00;99682.50;5012049;28;20061;-79
2023/02/12 07:30:18;;;;;;;1999.90;999.90;;;;;;;-0.23;100.00;99666.78;5012514;28;20047;-79
2023/02/12 07:32:44;;;;;;;1999.90;999.90;;;;;;;0.08;100.00;99696.19;5013174;28;20017;-81
2023/02/12 07:35:09;;;;;;;1999.90;999.90;;;;;;;0.10;100.00;99695.97;5013037;28;20029;-79
2023/02/12 07:37:34;;;;;;;1999.90;999.90;;;;;;;0.38;100.00;99700.53;5013290;28;20042;-81
2023/02/12 07:40:00;;;;;;;1999.90;999.90;;;;;;;0.31;100.00;99702.31;5014105;28;20034;-79
2023/02/12 07:42:25;;;;;;;1999.90;999.90;;;;;;;0.65;100.00;99715.16;5012206;28;20026;-78
2023/02/12 07:44:51;;;;;;;1999.90;999.90;;;;;;;0.68;100.00;99719.34;5011948;28;20080;-79
2023/02/12 07:47:16;;;;;;;1999.90;999.90;;;;;;;0.89;100.00;99716.69;5011714;28;20060;-81
2023/02/12 07:49:42;;;;;;;1999.90;999.90;;;;;;;1.08;100.00;99726.84;4994438;28;20026;-78
2023/02/12 07:52:09;;;;;;;1999.90;999.90;;;;;;;1.01;100.00;99718.69;4994150;28;20017;-77
2023/02/12 07:54:34;;;;;;;1999.90;999.90;;;;;;;1.09;100.00;99709.66;5011807;28;20497;-78
2023/02/12 07:56:59;;;;;;;1999.90;999.90;;;;;;;1.36;100.00;99732.31;5011628;28;20122;-78
2023/02/12 07:59:25;;;;;;;1999.90;999.90;;;;;;;1.60;100.00;99734.59;5011566;28;20434;-79
2023/02/12 08:01:52;;;;;;;1999.90;999.90;;;;;;;1.87;98.80;99727.59;5010404;28;20068;-77
2023/02/12 08:04:20;;;;;;;1999.90;999.90;;;;;;;1.96;97.47;99711.06;5014409;28;20029;-83
2023/02/12 08:06:48;;;;;;;1999.90;999.90;;;;;;;2.51;95.12;99720.94;4998464;28;20088;-81
2023/02/12 08:09:23;;;;;;;1999.90;999.90;;;;;;;2.61;92.28;99723.25;4994445;28;20509;-79
2023/02/12 08:11:49;;;;;;;1999.90;999.90;;;;;;;2.48;91.57;99720.50;4993948;28;20034;-75
2023/02/12 08:14:17;;;;;;;1999.90;999.90;;;;;;;2.42;92.21;99732.09;4995174;28;20479;-80
2023/02/12 08:16:44;;;;;;;1999.90;999.90;;;;;;;2.39;92.64;99721.69;4995078;28;20021;-79
2023/02/12 08:19:10;;;;;;;1999.90;999.90;;;;;;;2.09;93.78;99703.06;5013299;28;20029;-76
2023/02/12 08:21:37;;;;;;;1999.90;999.90;;;;;;;2.16;94.86;99720.09;5011291;28;20053;-77
2023/02/12 08:24:02;;;;;;;1999.90;999.90;;;;;;;2.22;94.67;99732.00;4995923;28;20037;-76
2023/02/12 08:26:33;;;;;;;1999.90;999.90;;;;;;;2.37;92.93;99742.66;4993151;28;20026;-75
2023/02/12 08:29:05;;;;;;;1999.90;999.90;;;;;;;2.35;100.00;99733.94;5011950;28;20034;-75
2023/02/12 08:31:37;;;;;;;1999.90;999.90;;;;;;;2.39;96.47;99754.09;5009979;28;20069;-75
2023/02/12 08:34:03;;;;;;;1999.90;999.90;;;;;;;2.45;97.63;99753.28;4992213;28;20033;-75
2023/02/12 08:36:35;;;;;;;1999.90;999.90;;;;;;;2.91;96.70;99751.69;5009643;28;20033;-76
2023/02/12 08:39:00;;;;;;;1999.90;999.90;;;;;;;3.09;89.91;99735.72;5006993;28;20049;-75
2023/02/12 08:41:28;;;;;;;1999.90;999.90;;;;;;;2.56;89.51;99740.09;5009460;28;20446;-75
2023/02/12 08:43:58;;;;;;;1999.90;999.90;;;;;;;2.53;92.54;99748.59;5009554;28;20720;-76
2023/02/12 08:46:29;;;;;;;1999.90;999.90;;;;;;;2.57;91.96;99770.59;5007281;28;20036;-75
2023/02/12 08:48:57;;;;;;;1999.90;999.90;;;;;;;2.62;92.57;99760.06;4991520;28;20025;-76
2023/02/12 08:51:29;;;;;;;1999.90;999.90;;;;;;;2.45;91.33;99774.91;5008033;28;20033;-75
2023/02/12 08:53:56;;;;;;;1999.90;999.90;;;;;;;2.25;92.41;99758.59;5009455;28;20390;-75
2023/02/12 08:56:23;;;;;;;1999.90;999.90;;;;;;;2.38;91.00;99769.44;5008718;28;20026;-75
2023/02/12 08:58:49;;;;;;;1999.90;999.90;;;;;;;2.03;94.09;99776.69;5008807;28;20026;-76
2023/02/12 09:01:17;;;;;;;1999.90;999.90;;;;;;;2.15;93.19;99774.28;5009097;28;20036;-75
2023/02/12 09:03:43;;;;;;;1999.90;999.90;;;;;;;1.99;93.97;99770.03;4997001;28;22508;-73
2023/02/12 09:06:09;;;;;;;1999.90;999.90;;;;;;;2.16;94.83;99774.06;4996982;28;20119;-74
2023/02/12 09:08:36;;;;;;;1999.90;999.90;;;;;;;2.67;91.36;99779.19;5005180;28;20089;-74
2023/02/12 09:11:07;;;;;;;1999.90;999.90;;;;;;;2.99;89.33;99773.13;5001789;28;20117;-73
2023/02/12 09:13:33;;;;;;;1999.90;999.90;;;;;;;3.45;85.68;99784.06;4999954;28;20036;-74
2023/02/12 09:16:01;;;;;;;1999.90;999.90;;;;;;;4.21;81.68;99773.72;5004207;28;20033;-74
2023/02/12 09:18:27;;;;;;;1999.90;999.90;;;;;;;5.30;75.47;99791.78;4991305;28;20022;-74
2023/02/12 09:20:52;;;;;;;1999.90;999.90;;;;;;;5.64;72.04;99784.31;5008865;28;20036;-74
2023/02/12 09:23:17;;;;;;;1999.90;999.90;;;;;;;5.98;69.23;99794.75;5008771;28;20018;-74
2023/02/12 09:25:45;;;;;;;1999.90;999.90;;;;;;;5.76;69.29;99807.78;5008989;28;20025;-73
2023/02/12 09:28:12;;;;;;;1999.90;999.90;;;;;;;5.60;68.40;99800.19;5009538;28;20041;-75
2023/02/12 09:30:38;;;;;;;1999.90;999.90;;;;;;;5.77;66.89;99805.91;5009705;28;20045;-74
2023/02/12 09:33:05;;;;;;;1999.90;999.90;;;;;;;5.75;66.17;99805.31;4990181;28;20088;-75
2023/02/12 09:35:34;;;;;;;1999.90;999.90;;;;;;;6.13;65.11;99792.53;5008573;28;20479;-74
2023/02/12 09:38:00;;;;;;;1999.90;999.90;;;;;;;7.60;61.89;99816.06;5008369;28;20119;-74
2023/02/12 09:40:28;;;;;;;1999.90;999.90;;;;;;;8.72;57.54;99805.06;5009783;28;20081;-74
2023/02/12 09:42:56;;;;;;;1999.90;999.90;;;;;;;10.60;51.46;99813.16;5010453;28;20156;-74
2023/02/12 09:45:25;;;;;;;1999.90;999.90;;;;;;;11.06;48.73;99820.97;5010728;28;20036;-75
2023/02/12 09:48:33;;;;;;;1999.90;999.90;;;;;;;12.48;44.55;99826.19;4996930;28;20463;-75
2023/02/12 09:51:02;;;;;;;1999.90;999.90;;;;;;;13.09;41.44;99834.91;5012719;28;20042;-77
2023/02/12 09:53:30;;;;;;;1999.90;999.90;;;;;;;13.32;40.30;99834.47;5010213;28;20030;-74
2023/02/12 09:55:56;;;;;;;1999.90;999.90;;;;;;;13.91;39.09;99830.31;5009728;28;20018;-76
2023/02/12 09:58:37;;;;;;;1999.90;999.90;;;;;;;13.31;39.39;99841.88;5010062;28;20021;-74
2023/02/12 10:01:14;;;;;;;1999.90;999.90;;;;;;;13.15;40.45;99836.59;5009896;28;20030;-76
2023/02/12 10:03:40;;;;;;;1999.90;999.90;;;;;;;13.26;40.42;99838.28;4992680;28;20034;-75
2023/02/12 10:06:33;;;;;;;1999.90;999.90;;;;;;;13.22;39.79;99840.75;4992492;28;20172;-75
2023/02/12 10:09:08;;;;;;;1999.90;999.90;;;;;;;14.55;37.19;99849.19;4992897;28;20061;-74
2023/02/12 10:11:39;;;;;;;1999.90;999.90;;;;;;;13.86;37.52;99848.75;4990962;28;20051;-75
2023/02/12 10:14:36;;;;;;;1999.90;999.90;;;;;;;12.31;39.74;99852.91;5015971;28;20037;-76
2023/02/12 10:17:07;;;;;;;;;;;;;;;13.15;39.30;99847.59;5032985;28;20047;-75
2023/02/12 10:19:51;;;;;;;1999.90;999.90;;;;;;;13.87;37.87;99856.75;4994683;28;19917;-76
2023/02/12 10:22:40;;;;;;;1999.90;999.90;;;;;;;13.58;38.92;99857.44;5004232;28;20117;-75
2023/02/12 10:25:27;;;;;;;1999.90;999.90;;;;;;;13.50;37.94;99845.00;4993747;28;20041;-75
2023/02/12 10:27:55;;;;;;;1999.90;999.90;;;;;;;14.15;37.53;99832.59;5002811;28;20029;-74
2023/02/12 10:30:45;;;;;;;1999.90;999.90;;;;;;;14.62;37.06;99841.50;5013416;28;20124;-75
2023/02/12 10:33:18;;;;;;;1999.90;999.90;;;;;;;14.53;36.18;99828.53;5013240;28;20109;-75
2023/02/12 10:35:50;;;;;;;1999.90;999.90;;;;;;;15.08;34.99;99839.50;5013297;28;20028;-75
2023/02/12 10:38:24;;;;;;;1999.90;999.90;;;;;;;14.54;35.47;99836.50;5001032;28;20438;-75
2023/02/12 10:40:49;;;;;;;1999.90;999.90;;;;;;;14.46;35.54;99837.91;4993037;28;20510;-75
2023/02/12 10:43:15;;;;;;;1999.90;999.90;;;;;;;15.45;33.71;99834.47;4993229;28;20030;-74
2023/02/12 10:45:42;;;;;;;1999.90;999.90;;;;;;;15.66;33.34;99831.66;4993631;28;20058;-77
2023/02/12 10:48:17;;;;;;;1999.90;999.90;;;;;;;15.54;33.11;99829.22;4992825;28;20026;-76
2023/02/12 10:51:11;;;;;;;1999.90;999.90;;;;;;;14.42;35.56;99825.78;4993321;28;20034;-74
2023/02/12 10:53:43;;;;;;;1999.90;999.90;;;;;;;14.64;34.53;99813.66;4993630;28;20692;-76
2023/02/12 10:56:11;;;;;;;1999.90;999.90;;;;;;;14.67;34.75;99821.38;4993477;28;20034;-74
2023/02/12 10:58:49;;;;;;;1999.90;999.90;;;;;;;15.13;33.45;99811.13;4993240;28;20022;-76
2023/02/12 11:01:24;;;;;;;1999.90;999.90;;;;;;;15.58;32.55;99805.47;4993272;28;20034;-75
2023/02/12 11:03:50;;;;;;;1999.90;999.90;;;;;;;15.85;31.58;99803.13;4993598;28;20023;-75